KMMK 221653Z AUTO 22006KT 10SM OVC110 08/M01 A3020 RMK AO2 SLP229 T00831006